Time;durP1;ratioP1;P1;durP2;ratioP2;P2;SDS_P1;SDS_P2;PMS_P1;PMS_P2;Temp;Humidity;BMP_temperature;BMP_pressure;BME280_temperature;BME280_humidity;BME280_pressure;Samples;Min_cycle;Max_cycle;Signal;HPM_P1;HPM_P2
2023/02/05 00:01:27;;;;;;;10.83;7.60;;;;;;;-0.91;91.48;103096.31;5082408;28;20196;-82
2023/02/05 00:03:54;;;;;;;9.23;6.87;;;;;;;-0.92;91.60;103083.19;5079084;28;21208;-81
2023/02/05 00:06:22;;;;;;;8.07;6.67;;;;;;;-0.94;91.89;103074.44;5083853;28;20197;-82
2023/02/05 00:08:48;;;;;;;9.77;7.80;;;;;;;-0.96;92.04;103070.91;5089202;28;20240;-82
2023/02/05 00:11:15;;;;;;;9.83;7.90;;;;;;;-1.00;92.03;103072.56;5085604;28;20205;-82
2023/02/05 00:13:42;;;;;;;9.83;7.67;;;;;;;-1.06;92.07;103062.81;5083058;28;20204;-81
2023/02/05 00:16:10;;;;;;;9.73;7.47;;;;;;;-1.06;92.21;103061.94;5078186;28;20228;-82
2023/02/05 00:18:37;;;;;;;8.97;7.10;;;;;;;-1.07;92.43;103055.81;5081700;28;20216;-82
2023/02/05 00:21:04;;;;;;;11.43;8.30;;;;;;;-1.07;92.42;103053.22;5081183;28;20302;-82
2023/02/05 00:23:39;;;;;;;11.23;7.53;;;;;;;-1.07;92.71;103049.72;5079928;28;20209;-82
2023/02/05 00:26:09;;;;;;;11.40;7.47;;;;;;;-1.07;92.78;103039.25;5082660;28;20199;-81
2023/02/05 00:28:45;;;;;;;7.70;6.30;;;;;;;-1.08;92.99;103043.63;5082819;28;20295;-82
2023/02/05 00:31:14;;;;;;;8.00;6.20;;;;;;;-1.09;92.70;103046.22;5073688;28;20255;-82
2023/02/05 00:33:41;;;;;;;10.67;7.03;;;;;;;-1.09;93.20;103047.09;5081341;28;20649;-82
2023/02/05 00:36:13;;;;;;;9.30;6.67;;;;;;;-1.09;93.31;103044.47;5086373;28;20226;-82
2023/02/05 00:38:41;;;;;;;8.33;6.73;;;;;;;-1.09;93.16;103038.38;5080529;28;20295;-83
2023/02/05 00:41:10;;;;;;;9.43;7.10;;;;;;;-1.10;93.24;103039.22;5086144;28;20208;-80
2023/02/05 00:43:39;;;;;;;7.63;6.23;;;;;;;-1.12;93.39;103039.16;5081289;28;20292;-84
2023/02/05 00:46:08;;;;;;;9.00;5.70;;;;;;;-1.11;93.68;103034.81;5085153;28;20608;-82
2023/02/05 00:48:34;;;;;;;7.93;6.60;;;;;;;-1.14;93.40;103029.53;5085121;28;20209;-82
2023/02/05 00:51:01;;;;;;;9.40;6.30;;;;;;;-1.16;93.46;103023.38;5076434;28;20672;-83
2023/02/05 00:53:27;;;;;;;7.60;5.53;;;;;;;-1.17;93.72;103016.38;5082824;28;20204;-82
2023/02/05 00:55:55;;;;;;;9.00;6.03;;;;;;;-1.19;93.71;103011.09;5087190;28;20231;-82
2023/02/05 00:58:22;;;;;;;8.37;6.03;;;;;;;-1.21;94.07;103004.97;5084247;28;20204;-83
2023/02/05 01:00:52;;;;;;;6.63;5.90;;;;;;;-1.20;93.54;102995.38;5088362;28;20242;-82
2023/02/05 01:03:19;;;;;;;7.77;6.00;;;;;;;-1.22;93.71;102986.63;5085109;28;20196;-83
2023/02/05 01:05:46;;;;;;;10.03;5.80;;;;;;;-1.22;93.98;102987.50;5080406;28;20573;-83
2023/02/05 01:08:13;;;;;;;8.17;6.10;;;;;;;-1.23;94.39;102982.22;5081824;28;20678;-82
2023/02/05 01:10:44;;;;;;;9.17;5.47;;;;;;;-1.25;94.13;102986.53;5082426;28;20255;-82
2023/02/05 01:13:11;;;;;;;7.20;6.43;;;;;;;-1.25;94.27;102986.53;5086052;28;20211;-83
2023/02/05 01:15:38;;;;;;;6.27;5.03;;;;;;;-1.25;94.35;102984.81;5083481;28;20589;-82
2023/02/05 01:18:05;;;;;;;7.70;5.40;;;;;;;-1.27;94.38;102972.59;5093275;28;20203;-81
2023/02/05 01:20:32;;;;;;;7.30;5.50;;;;;;;-1.27;94.69;102969.97;5083691;28;20224;-83
2023/02/05 01:22:58;;;;;;;7.63;5.30;;;;;;;-1.27;94.66;102972.59;5084299;28;20652;-82
2023/02/05 01:25:25;;;;;;;6.37;5.27;;;;;;;-1.29;94.76;102963.81;5084388;28;20837;-82
2023/02/05 01:27:51;;;;;;;6.83;5.03;;;;;;;-1.29;94.58;102953.38;5078672;28;20904;-81
2023/02/05 01:30:19;;;;;;;7.40;5.90;;;;;;;-1.31;94.92;102944.59;5083113;28;20590;-82
2023/02/05 01:32:48;;;;;;;8.77;5.40;;;;;;;-1.31;95.34;102944.59;5080881;28;20213;-81
2023/02/05 01:35:14;;;;;;;6.43;5.53;;;;;;;-1.32;94.98;102942.84;5088084;28;20314;-83
2023/02/05 01:37:41;;;;;;;5.90;4.73;;;;;;;-1.33;95.32;102941.94;5086682;28;20227;-82
2023/02/05 01:40:09;;;;;;;7.70;5.43;;;;;;;-1.33;95.11;102928.00;5088771;28;20259;-81
2023/02/05 01:42:36;;;;;;;6.90;5.33;;;;;;;-1.36;95.22;102925.31;5095023;28;20627;-82
2023/02/05 01:45:41;;;;;;;8.03;5.33;;;;;;;-1.37;95.52;102936.63;5097188;28;20220;-82
2023/02/05 01:48:09;;;;;;;9.07;5.20;;;;;;;-1.40;95.39;102938.31;5088915;28;20196;-81
2023/02/05 01:50:40;;;;;;;7.23;4.97;;;;;;;-1.42;95.41;102932.16;5097999;28;20232;-82
2023/02/05 01:53:11;;;;;;;6.83;4.80;;;;;;;-1.44;95.09;102946.94;5094687;28;20204;-81
2023/02/05 01:55:40;;;;;;;5.93;4.90;;;;;;;-1.43;95.73;102938.22;5097340;28;20204;-84
2023/02/05 01:58:07;;;;;;;6.07;4.60;;;;;;;-1.44;95.70;102948.69;5093353;28;20210;-82
2023/02/05 02:00:33;;;;;;;6.90;5.00;;;;;;;-1.44;95.76;102938.22;5091711;28;20235;-81
2023/02/05 02:03:01;;;;;;;6.43;4.97;;;;;;;-1.46;95.87;102919.91;5088957;28;20766;-82
2023/02/05 02:05:28;;;;;;;5.90;4.23;;;;;;;-1.46;95.94;102904.22;5098539;28;20207;-82
2023/02/05 02:07:54;;;;;;;6.83;4.77;;;;;;;-1.47;95.66;102896.34;5101004;28;20208;-82
2023/02/05 02:10:21;;;;;;;6.40;4.37;;;;;;;-1.49;95.98;102891.06;5088838;28;20799;-82
2023/02/05 02:12:49;;;;;;;7.83;4.77;;;;;;;-1.51;95.94;102892.78;5094029;28;20215;-82
2023/02/05 02:15:18;;;;;;;7.07;4.83;;;;;;;-1.53;95.38;102884.00;5093879;28;20224;-82
2023/02/05 02:17:47;;;;;;;5.80;4.47;;;;;;;-1.55;95.93;102883.09;5091402;28;20227;-82
2023/02/05 02:20:18;;;;;;;7.50;4.93;;;;;;;-1.55;95.79;102888.31;5087085;28;20216;-82
2023/02/05 02:23:06;;;;;;;6.83;4.73;;;;;;;-1.56;95.83;102897.00;5081806;28;20788;-80
2023/02/05 02:26:03;;;;;;;7.27;4.10;;;;;;;-1.58;95.79;102883.03;5099180;28;20195;-81
2023/02/05 02:28:37;;;;;;;5.13;3.93;;;;;;;-1.60;96.07;102874.25;5079902;28;20291;-81
2023/02/05 02:31:08;;;;;;;6.90;4.50;;;;;;;-1.62;96.03;102876.00;5094504;28;20205;-81
2023/02/05 02:33:40;;;;;;;6.13;4.60;;;;;;;-1.63;95.57;102870.72;5095614;28;20536;-82
2023/02/05 02:36:13;;;;;;;5.90;4.40;;;;;;;-1.63;95.96;102863.78;5095686;28;20230;-81
2023/02/05 02:38:43;;;;;;;6.43;4.00;;;;;;;-1.62;96.18;102862.03;5097035;28;20584;-82
2023/02/05 02:41:14;;;;;;;7.20;4.50;;;;;;;-1.63;95.75;102863.78;5089797;28;20561;-80
2023/02/05 02:43:50;;;;;;;10.43;5.03;;;;;;;-1.63;96.28;102871.59;5099239;28;20200;-82
2023/02/05 02:46:20;;;;;;;6.33;4.57;;;;;;;-1.62;96.17;102860.31;5090057;28;20219;-81
2023/02/05 02:48:50;;;;;;;7.23;4.70;;;;;;;-1.62;96.56;102859.44;5087076;28;20232;-82
2023/02/05 02:51:20;;;;;;;7.00;4.70;;;;;;;-1.62;96.09;102855.09;5099484;28;20647;-82
2023/02/05 02:53:49;;;;;;;8.57;4.87;;;;;;;-1.62;96.26;102847.25;5088437;28;20209;-80
2023/02/05 02:56:19;;;;;;;7.63;4.33;;;;;;;-1.61;96.47;102841.13;5098450;28;20243;-82
2023/02/05 02:58:49;;;;;;;5.53;4.27;;;;;;;-1.60;96.38;102837.69;5082502;28;20211;-80
2023/02/05 03:01:19;;;;;;;7.53;4.97;;;;;;;-1.58;96.33;102835.09;5090737;28;20204;-82
2023/02/05 03:03:52;;;;;;;6.30;5.00;;;;;;;-1.59;96.66;102839.44;5088688;28;20201;-82
2023/02/05 03:06:22;;;;;;;7.80;5.03;;;;;;;-1.58;96.93;102842.94;5086822;28;20200;-81
2023/02/05 03:08:54;;;;;;;6.30;4.87;;;;;;;-1.59;96.44;102844.66;5092879;28;20445;-83
2023/02/05 03:11:20;;;;;;;6.33;5.23;;;;;;;-1.58;96.74;102853.41;5092008;28;20654;-82
2023/02/05 03:13:48;;;;;;;6.00;4.57;;;;;;;-1.60;96.44;102849.88;5097314;28;20672;-83
2023/02/05 03:16:18;;;;;;;8.60;4.60;;;;;;;-1.61;96.25;102848.97;5089424;28;20235;-82
2023/02/05 03:18:44;;;;;;;6.37;4.20;;;;;;;-1.61;96.16;102845.53;5087510;28;20223;-83
2023/02/05 03:21:16;;;;;;;7.67;5.23;;;;;;;-1.62;96.63;102847.25;5086671;28;20589;-81
2023/02/05 03:23:43;;;;;;;6.03;4.57;;;;;;;-1.62;96.44;102854.19;5097269;28;20192;-81
2023/02/05 03:26:23;;;;;;;7.40;4.53;;;;;;;-1.62;96.60;102856.81;5092848;28;20204;-82
2023/02/05 03:28:51;;;;;;;5.90;4.50;;;;;;;-1.63;96.51;102850.72;5089061;28;20228;-83
2023/02/05 03:31:20;;;;;;;6.43;4.57;;;;;;;-1.62;96.47;102856.81;5099616;28;20208;-82
2023/02/05 03:33:55;;;;;;;5.20;4.30;;;;;;;-1.64;96.57;102846.31;5084268;28;20204;-81
2023/02/05 03:36:26;;;;;;;6.33;5.07;;;;;;;-1.66;96.18;102852.38;5090509;28;20212;-81
2023/02/05 03:39:08;;;;;;;5.97;4.40;;;;;;;-1.69;96.03;102841.84;5082175;28;20216;-82
2023/02/05 03:44:39;;;;;;;8.20;5.47;;;;;;;-1.72;95.84;102832.19;5097104;28;20283;-82
2023/02/05 03:47:13;;;;;;;6.70;5.63;;;;;;;-1.73;96.13;102835.66;5094169;28;20205;-82
2023/02/05 03:49:52;;;;;;;8.03;6.47;;;;;;;-1.73;96.45;102837.38;5090152;28;20235;-82
2023/02/05 03:52:22;;;;;;;7.87;4.67;;;;;;;-1.73;96.38;102835.66;5082249;28;20205;-81
2023/02/05 03:55:00;;;;;;;6.50;5.37;;;;;;;-1.73;96.38;102827.81;5095075;28;20203;-82
2023/02/05 03:57:32;;;;;;;6.17;5.07;;;;;;;-1.72;96.12;102834.81;5086912;28;20212;-82
2023/02/05 04:00:01;;;;;;;5.90;4.73;;;;;;;-1.72;96.81;102832.19;5095475;28;20728;-81
2023/02/05 04:02:28;;;;;;;5.97;4.10;;;;;;;-1.73;96.68;102825.22;5091030;28;20306;-82
2023/02/05 04:04:54;;;;;;;6.07;4.07;;;;;;;-1.72;96.69;102815.66;5088320;28;20200;-82
2023/02/05 04:07:21;;;;;;;5.13;3.53;;;;;;;-1.72;96.23;102813.03;5090397;28;20200;-81
2023/02/05 04:09:47;;;;;;;4.03;3.60;;;;;;;-1.74;96.93;102813.00;5087481;28;20228;-80
2023/02/05 04:12:14;;;;;;;5.73;3.37;;;;;;;-1.70;96.86;102809.59;5090595;28;20654;-81
2023/02/05 04:14:40;;;;;;;5.47;3.43;;;;;;;-1.69;96.62;102808.75;5090538;28;20215;-81
2023/02/05 04:17:09;;;;;;;4.37;2.93;;;;;;;-1.67;96.96;102804.47;5089544;28;20231;-81
2023/02/05 04:19:35;;;;;;;5.47;3.00;;;;;;;-1.65;97.06;102802.75;5085609;28;20227;-82
2023/02/05 04:22:02;;;;;;;3.70;2.73;;;;;;;-1.62;97.40;102801.94;5085394;28;20205;-81
2023/02/05 04:24:29;;;;;;;4.33;2.30;;;;;;;-1.56;97.15;102805.56;5086961;28;20212;-82
2023/02/05 04:26:55;;;;;;;2.73;2.40;;;;;;;-1.52;97.65;102802.16;5082009;28;20208;-83
2023/02/05 04:29:22;;;;;;;3.67;2.40;;;;;;;-1.45;97.75;102808.41;5088924;28;20244;-82
2023/02/05 04:31:49;;;;;;;4.83;2.80;;;;;;;-1.41;97.37;102813.69;5096200;28;20208;-82
2023/02/05 04:34:17;;;;;;;3.03;2.23;;;;;;;-1.32;97.49;102813.00;5086765;28;20222;-81
2023/02/05 04:36:43;;;;;;;2.80;2.00;;;;;;;-1.26;97.94;102810.53;5091515;28;20224;-82
2023/02/05 04:39:09;;;;;;;2.33;1.87;;;;;;;-1.21;98.05;102803.63;5088448;28;20231;-82
2023/02/05 04:41:36;;;;;;;3.80;1.80;;;;;;;-1.14;98.20;102804.66;5091418;28;20215;-82
2023/02/05 04:44:02;;;;;;;3.83;2.17;;;;;;;-1.07;98.11;102806.50;5091691;28;20208;-83
2023/02/05 04:46:29;;;;;;;2.27;1.90;;;;;;;-0.99;98.19;102806.66;5087311;28;20196;-82
2023/02/05 04:48:55;;;;;;;2.20;1.70;;;;;;;-0.92;98.33;102811.16;5091233;28;20741;-82
2023/02/05 04:51:23;;;;;;;1.93;1.47;;;;;;;-0.86;98.16;102801.69;5090906;28;20215;-82
2023/02/05 04:53:50;;;;;;;1.70;1.60;;;;;;;-0.78;97.96;102792.25;5082842;28;20212;-82
2023/02/05 04:56:17;;;;;;;2.40;1.70;;;;;;;-0.72;97.99;102787.09;5089218;28;20212;-82
2023/02/05 04:58:44;;;;;;;1.97;1.47;;;;;;;-0.66;97.55;102786.31;5088976;28;20229;-83
2023/02/05 05:01:12;;;;;;;2.90;1.70;;;;;;;-0.60;97.38;102785.56;5094683;28;20807;-84
2023/02/05 05:03:39;;;;;;;3.00;2.07;;;;;;;-0.56;97.07;102790.00;5092610;28;20702;-83
2023/02/05 05:06:07;;;;;;;2.40;1.50;;;;;;;-0.50;96.96;102792.69;5089563;28;20207;-82
2023/02/05 05:08:35;;;;;;;3.50;1.53;;;;;;;-0.47;96.73;102795.38;5095668;28;20207;-84
2023/02/05 05:11:06;;;;;;;1.87;1.33;;;;;;;-0.44;96.67;102791.06;5081462;28;20664;-81
2023/02/05 05:13:33;;;;;;;1.30;1.20;;;;;;;-0.39;96.24;102786.78;5092737;28;20202;-84
2023/02/05 05:15:59;;;;;;;2.83;1.50;;;;;;;-0.35;95.66;102779.84;5071682;28;20215;-81
2023/02/05 05:18:26;;;;;;;3.40;1.60;;;;;;;-0.31;94.97;102786.00;5087333;28;20617;-82
2023/02/05 05:20:53;;;;;;;3.80;1.40;;;;;;;-0.28;94.71;102783.44;5086000;28;20219;-81
2023/02/05 05:23:19;;;;;;;1.40;1.30;;;;;;;-0.25;94.38;102783.50;5088511;28;20745;-82
2023/02/05 05:25:48;;;;;;;3.30;1.70;;;;;;;-0.22;94.14;102781.81;5085854;28;20211;-81
2023/02/05 05:28:16;;;;;;;2.40;1.70;;;;;;;-0.21;93.87;102775.72;5094882;28;20204;-82
2023/02/05 05:30:44;;;;;;;2.03;1.60;;;;;;;-0.18;93.55;102780.97;5096952;28;20220;-82
2023/02/05 05:33:11;;;;;;;1.67;1.23;;;;;;;-0.16;93.31;102778.38;5088404;28;20825;-82
2023/02/05 05:35:38;;;;;;;2.40;1.43;;;;;;;-0.15;93.03;102778.41;5089784;28;20212;-81
2023/02/05 05:38:05;;;;;;;2.17;1.57;;;;;;;-0.15;92.95;102775.78;5090089;28;20390;-82
2023/02/05 05:46:06;;;;;;;2.40;1.70;;;;;;;-0.09;91.80;102770.66;5089354;28;20229;-82
2023/02/05 05:48:33;;;;;;;1.90;1.30;;;;;;;-0.08;91.86;102756.69;5083694;28;20201;-82
2023/02/05 05:50:59;;;;;;;2.00;1.50;;;;;;;-0.08;91.46;102755.81;5079447;28;20571;-81
2023/02/05 05:53:26;;;;;;;2.70;1.40;;;;;;;-0.04;91.19;102768.09;5082924;28;20216;-81
2023/02/05 05:55:52;;;;;;;2.60;1.73;;;;;;;-0.05;91.13;102756.75;5088407;28;20208;-82
2023/02/05 05:58:20;;;;;;;3.13;1.60;;;;;;;-0.02;90.71;102746.31;5088086;28;20224;-82
2023/02/05 06:00:47;;;;;;;1.40;1.30;;;;;;;-0.02;90.47;102741.06;5080179;28;20704;-83
2023/02/05 06:03:13;;;;;;;1.90;1.30;;;;;;;0.00;90.39;102744.56;5080945;28;20736;-84
2023/02/05 06:05:39;;;;;;;2.17;1.17;;;;;;;0.04;90.15;102749.84;5089153;28;20224;-82
2023/02/05 06:08:06;;;;;;;1.70;1.40;;;;;;;0.04;89.94;102736.75;5088681;28;20204;-82
2023/02/05 06:10:33;;;;;;;3.33;1.60;;;;;;;0.03;89.75;102728.00;5091408;28;20223;-82
2023/02/05 06:13:00;;;;;;;2.47;1.70;;;;;;;0.05;89.78;102714.94;5085745;28;20204;-81
2023/02/05 06:15:28;;;;;;;2.73;1.70;;;;;;;0.05;89.56;102720.19;5090673;28;20204;-83
2023/02/05 06:17:54;;;;;;;1.70;1.30;;;;;;;0.05;89.59;102718.44;5077584;28;20224;-82
2023/02/05 06:20:21;;;;;;;3.30;1.90;;;;;;;0.06;89.48;102711.47;5087924;28;20224;-82
2023/02/05 06:22:47;;;;;;;1.33;1.23;;;;;;;0.07;89.25;102714.09;5092588;28;20200;-81
2023/02/05 06:25:14;;;;;;;2.70;1.50;;;;;;;0.09;89.24;102716.75;5092349;28;20192;-82
2023/02/05 06:27:41;;;;;;;2.80;1.80;;;;;;;0.09;89.10;102703.66;5091128;28;20250;-81
2023/02/05 06:30:08;;;;;;;2.60;1.63;;;;;;;0.10;88.98;102700.16;5087406;28;20221;-82
2023/02/05 06:32:36;;;;;;;4.07;1.47;;;;;;;0.11;88.86;102708.06;5095227;28;20239;-82
2023/02/05 06:35:03;;;;;;;2.70;1.70;;;;;;;0.12;89.01;102693.22;5094144;28;20207;-81
2023/02/05 06:37:30;;;;;;;2.70;1.50;;;;;;;0.12;88.96;102690.59;5092890;28;20232;-81
2023/02/05 06:39:56;;;;;;;3.07;1.50;;;;;;;0.13;88.43;102677.50;5089924;28;20231;-84
2023/02/05 06:42:23;;;;;;;3.27;2.10;;;;;;;0.16;88.81;102672.31;5094301;28;20781;-84
2023/02/05 06:44:49;;;;;;;3.20;2.13;;;;;;;0.16;88.39;102656.59;5091455;28;20196;-82
2023/02/05 06:47:16;;;;;;;2.70;1.63;;;;;;;0.19;88.43;102667.06;5094335;28;20662;-82
2023/02/05 06:49:44;;;;;;;3.23;1.90;;;;;;;0.18;88.12;102678.41;5097757;28;20228;-82
2023/02/05 06:52:10;;;;;;;2.73;1.67;;;;;;;0.20;88.18;102688.91;5093847;28;20196;-83
2023/02/05 06:54:37;;;;;;;3.57;2.17;;;;;;;0.21;88.30;102693.31;5094877;28;20212;-83
2023/02/05 06:57:04;;;;;;;3.50;2.20;;;;;;;0.22;88.18;102700.31;5091645;28;20208;-84
2023/02/05 06:59:30;;;;;;;2.70;1.93;;;;;;;0.23;88.75;102704.69;5089854;28;20232;-80
2023/02/05 07:01:57;;;;;;;2.70;1.83;;;;;;;0.24;88.35;102707.31;5094495;28;20220;-81
2023/02/05 07:04:25;;;;;;;2.40;1.60;;;;;;;0.24;87.79;102703.81;5092115;28;20200;-83
2023/02/05 07:06:53;;;;;;;1.73;1.60;;;;;;;0.26;88.21;102702.09;5091719;28;20667;-83
2023/02/05 07:09:20;;;;;;;2.80;2.20;;;;;;;0.26;87.97;102713.47;5086900;28;20231;-82
2023/02/05 07:11:47;;;;;;;4.93;2.00;;;;;;;0.27;87.84;102709.09;5089785;28;20211;-81
2023/02/05 07:14:13;;;;;;;3.07;2.50;;;;;;;0.27;87.82;102706.50;5090414;28;20211;-82
2023/02/05 07:16:39;;;;;;;4.50;2.53;;;;;;;0.27;87.62;102702.13;5097521;28;20212;-82
2023/02/05 07:19:06;;;;;;;3.53;1.97;;;;;;;0.27;87.63;102698.63;5082889;28;20578;-81
2023/02/05 07:21:32;;;;;;;2.87;1.97;;;;;;;0.28;87.59;102689.91;5087429;28;20210;-84
2023/02/05 07:24:01;;;;;;;2.23;2.00;;;;;;;0.29;87.51;102692.53;5096999;28;20688;-84
2023/02/05 07:26:27;;;;;;;4.63;1.77;;;;;;;0.31;87.35;102692.56;5092301;28;20208;-82
2023/02/05 07:28:54;;;;;;;3.50;2.03;;;;;;;0.29;87.38;102692.53;5098015;28;20618;-82
2023/02/05 07:31:20;;;;;;;3.20;1.80;;;;;;;0.31;87.25;102697.81;5092696;28;20645;-82
2023/02/05 07:33:47;;;;;;;2.83;1.93;;;;;;;0.32;87.47;102710.06;5103223;28;20208;-83
2023/02/05 07:36:16;;;;;;;2.43;1.73;;;;;;;0.34;87.43;102713.56;5096821;28;20196;-84
2023/02/05 07:38:44;;;;;;;2.80;1.80;;;;;;;0.36;87.52;102700.50;5094255;28;20224;-83
2023/02/05 07:41:14;;;;;;;3.70;1.73;;;;;;;0.36;87.43;102696.09;5095812;28;20242;-83
2023/02/05 07:43:41;;;;;;;3.13;1.80;;;;;;;0.37;87.53;102703.09;5097782;28;20577;-84
2023/02/05 07:46:10;;;;;;;3.17;1.67;;;;;;;0.38;87.47;102691.75;5100514;28;20675;-82
2023/02/05 07:48:37;;;;;;;3.17;2.00;;;;;;;0.40;87.60;102697.91;5093843;28;20212;-83
2023/02/05 07:51:05;;;;;;;3.70;1.70;;;;;;;0.42;87.48;102683.06;5090243;28;20212;-82
2023/02/05 07:53:31;;;;;;;2.87;2.00;;;;;;;0.43;87.19;102687.44;5097130;28;20210;-82
2023/02/05 07:56:02;;;;;;;2.60;2.40;;;;;;;0.46;87.40;102683.97;5094654;28;20200;-83
2023/02/05 07:58:30;;;;;;;4.47;2.83;;;;;;;0.46;87.43;102677.00;5091414;28;20213;-83
2023/02/05 08:01:00;;;;;;;4.03;2.20;;;;;;;0.50;87.55;102676.19;5096615;28;20228;-82
2023/02/05 08:03:26;;;;;;;3.37;2.33;;;;;;;0.53;87.61;102677.97;5087160;28;20205;-82
2023/02/05 08:05:53;;;;;;;3.83;2.50;;;;;;;0.56;87.19;102676.22;5084966;28;20669;-83
2023/02/05 08:08:20;;;;;;;4.20;2.40;;;;;;;0.58;87.66;102677.13;5088562;28;20656;-82
2023/02/05 08:10:46;;;;;;;3.00;2.10;;;;;;;0.61;87.54;102685.03;5085746;28;20220;-84
2023/02/05 08:13:13;;;;;;;4.93;2.70;;;;;;;0.64;87.37;102677.19;5084513;28;20203;-83
2023/02/05 08:15:40;;;;;;;4.87;2.20;;;;;;;0.67;87.34;102674.59;5086872;28;20212;-83
2023/02/05 08:18:07;;;;;;;3.10;2.50;;;;;;;0.71;87.45;102677.25;5079646;28;20224;-82
2023/02/05 08:20:34;;;;;;;2.90;1.83;;;;;;;0.73;87.39;102679.00;5089745;28;20237;-81
2023/02/05 08:23:03;;;;;;;4.07;2.43;;;;;;;0.76;87.60;102681.66;5083095;28;20212;-82
2023/02/05 08:25:30;;;;;;;4.33;2.33;;;;;;;0.79;87.50;102680.81;5087356;28;20232;-84
2023/02/05 08:27:56;;;;;;;2.93;2.23;;;;;;;0.81;87.34;102681.72;5087513;28;20201;-80
2023/02/05 08:30:23;;;;;;;4.37;2.30;;;;;;;0.84;87.37;102681.75;5090932;28;20221;-82
2023/02/05 08:32:51;;;;;;;5.07;2.80;;;;;;;0.85;87.66;102679.13;5085965;28;20204;-82
2023/02/05 08:35:18;;;;;;;2.73;2.00;;;;;;;0.88;87.62;102673.03;5092761;28;20208;-81
2023/02/05 08:37:44;;;;;;;2.33;2.00;;;;;;;0.93;87.28;102671.31;5091892;28;20204;-82
2023/02/05 08:40:12;;;;;;;4.37;2.83;;;;;;;0.94;87.47;102671.34;5091226;28;20231;-82
2023/02/05 08:42:38;;;;;;;3.60;2.60;;;;;;;0.97;87.33;102670.47;5085215;28;20205;-82
2023/02/05 08:45:07;;;;;;;3.63;2.73;;;;;;;0.99;87.50;102674.88;5080930;28;20474;-81
2023/02/05 08:47:34;;;;;;;4.90;2.30;;;;;;;1.02;87.52;102682.78;5082035;28;20240;-82
2023/02/05 08:50:03;;;;;;;3.80;2.57;;;;;;;1.05;87.05;102684.56;5082561;28;20217;-82
2023/02/05 08:52:29;;;;;;;3.57;2.57;;;;;;;1.07;87.44;102687.19;5086704;28;20196;-82
2023/02/05 08:54:55;;;;;;;3.20;2.20;;;;;;;1.07;87.03;102680.22;5090895;28;20291;-82
2023/02/05 08:57:22;;;;;;;3.70;2.57;;;;;;;1.10;86.90;102679.31;5094380;28;20211;-82
2023/02/05 08:59:48;;;;;;;5.43;2.27;;;;;;;1.11;86.83;102684.59;5084657;28;20231;-82
2023/02/05 09:02:15;;;;;;;4.87;3.43;;;;;;;1.14;86.59;102674.13;5086492;28;20219;-83
2023/02/05 09:04:42;;;;;;;2.93;2.47;;;;;;;1.17;86.67;102678.53;5089576;28;20208;-83
2023/02/05 09:07:10;;;;;;;3.83;2.60;;;;;;;1.19;86.98;102672.41;5088357;28;20224;-82
2023/02/05 09:09:37;;;;;;;3.97;2.27;;;;;;;1.22;86.91;102674.19;5088210;28;20220;-83
2023/02/05 09:12:03;;;;;;;3.20;2.67;;;;;;;1.24;86.68;102675.97;5086759;28;20209;-83
2023/02/05 09:14:34;;;;;;;5.50;2.70;;;;;;;1.27;87.12;102675.97;5085985;28;20611;-83
2023/02/05 09:17:01;;;;;;;4.80;2.47;;;;;;;1.29;86.78;102678.59;5086256;28;20220;-81
2023/02/05 09:19:29;;;;;;;4.00;2.50;;;;;;;1.33;86.87;102670.75;5092386;28;20228;-81
2023/02/05 09:21:56;;;;;;;4.67;2.83;;;;;;;1.35;86.59;102666.41;5089416;28;20254;-80
2023/02/05 09:24:24;;;;;;;4.83;2.97;;;;;;;1.38;87.01;102668.19;5087745;28;20211;-81
2023/02/05 09:26:51;;;;;;;3.40;2.67;;;;;;;1.39;86.84;102676.06;5086583;28;20208;-81
2023/02/05 09:29:17;;;;;;;4.23;2.73;;;;;;;1.43;87.15;102678.72;5083808;28;20228;-82
2023/02/05 09:31:44;;;;;;;4.73;3.33;;;;;;;1.45;87.38;102675.22;5079508;28;20200;-81
2023/02/05 09:34:10;;;;;;;4.87;2.67;;;;;;;1.47;87.14;102668.22;5083180;28;20215;-81
2023/02/05 09:36:37;;;;;;;5.00;3.00;;;;;;;1.50;87.58;102670.88;5078609;28;20205;-81
2023/02/05 09:39:04;;;;;;;3.63;2.60;;;;;;;1.53;87.10;102667.38;5082773;28;20229;-80
2023/02/05 09:41:41;;;;;;;4.13;2.87;;;;;;;1.55;87.56;102670.91;5085437;28;20224;-81
2023/02/05 09:44:27;;;;;;;3.87;2.77;;;;;;;1.57;87.51;102672.69;5083110;28;20729;-82
2023/02/05 09:47:04;;;;;;;6.53;3.47;;;;;;;1.58;87.51;102666.56;5085375;28;20200;-82
2023/02/05 09:49:38;;;;;;;3.57;3.07;;;;;;;1.62;87.99;102677.94;5085148;28;20225;-82
2023/02/05 09:52:12;;;;;;;4.60;3.60;;;;;;;1.64;88.27;102677.06;5084577;28;20212;-82
2023/02/05 09:54:41;;;;;;;4.47;3.53;;;;;;;1.67;88.21;102677.09;5089790;28;20211;-82
2023/02/05 09:57:15;;;;;;;5.00;3.70;;;;;;;1.71;88.42;102683.25;5090005;28;20212;-81
2023/02/05 09:59:44;;;;;;;5.40;3.30;;;;;;;1.73;89.01;102692.91;5095767;28;20232;-82
2023/02/05 10:02:24;;;;;;;4.87;4.00;;;;;;;1.75;88.68;102695.53;5091395;28;20235;-83
2023/02/05 10:04:53;;;;;;;4.10;3.53;;;;;;;1.76;88.86;102689.44;5093067;28;20207;-81
2023/02/05 10:07:26;;;;;;;7.97;4.03;;;;;;;1.79;89.64;102697.31;5091473;28;20202;-81
2023/02/05 10:10:14;;;;;;;7.27;4.80;;;;;;;1.79;89.14;102688.56;5094168;28;20299;-81
2023/02/05 10:13:02;;;;;;;5.40;4.23;;;;;;;1.81;89.91;102692.06;5092664;28;20200;-81
2023/02/05 10:15:43;;;;;;;5.20;3.80;;;;;;;1.81;89.99;102685.06;5088888;28;20197;-81
2023/02/05 10:18:20;;;;;;;5.23;4.27;;;;;;;1.81;90.22;102685.06;5089767;28;20211;-81
2023/02/05 10:21:00;;;;;;;7.57;4.60;;;;;;;1.80;89.85;102693.78;5093824;28;20231;-82
2023/02/05 10:23:40;;;;;;;6.27;4.13;;;;;;;1.80;90.24;102688.53;5093488;28;20661;-82
2023/02/05 10:26:10;;;;;;;7.70;5.50;;;;;;;1.81;90.55;102676.28;5091084;28;20757;-82
2023/02/05 10:29:09;;;;;;;8.30;5.30;;;;;;;1.82;91.15;102680.66;5090485;28;20289;-82
2023/02/05 10:31:42;;;;;;;8.80;4.17;;;;;;;1.82;91.66;102681.56;5089713;28;20212;-82
2023/02/05 10:34:25;;;;;;;7.77;4.80;;;;;;;1.82;91.11;102681.56;5092894;28;20196;-82
2023/02/05 10:36:53;;;;;;;6.83;4.90;;;;;;;1.83;91.46;102678.06;5090807;28;20196;-82
2023/02/05 10:39:22;;;;;;;7.97;5.10;;;;;;;1.83;91.59;102672.81;5090360;28;20692;-81
2023/02/05 10:41:53;;;;;;;7.13;5.70;;;;;;;1.85;91.93;102681.56;5090974;28;20257;-82
2023/02/05 10:44:25;;;;;;;6.00;4.70;;;;;;;1.87;92.83;102679.84;5086917;28;20207;-81
2023/02/05 10:46:57;;;;;;;5.93;4.40;;;;;;;1.89;92.84;102674.59;5095254;28;20192;-81
2023/02/05 10:49:31;;;;;;;8.60;5.47;;;;;;;1.92;93.40;102682.50;5089189;28;20239;-82
2023/02/05 10:51:57;;;;;;;6.00;4.30;;;;;;;1.92;93.41;102679.88;5089782;28;20211;-82
2023/02/05 10:54:27;;;;;;;7.47;4.30;;;;;;;1.94;93.70;102686.00;5090796;28;20208;-82
2023/02/05 10:56:55;;;;;;;6.00;4.20;;;;;;;1.95;94.03;102690.41;5091523;28;20196;-81
2023/02/05 10:59:24;;;;;;;5.50;4.17;;;;;;;1.97;93.95;102693.91;5088233;28;20232;-82
2023/02/05 11:01:51;;;;;;;5.80;4.50;;;;;;;1.96;93.79;102685.16;5086737;28;20880;-80
2023/02/05 11:04:24;;;;;;;5.70;4.53;;;;;;;1.97;93.90;102684.25;5090300;28;20205;-80
2023/02/05 11:06:52;;;;;;;7.93;5.00;;;;;;;1.98;94.49;102677.25;5091532;28;20196;-81
2023/02/05 11:09:33;;;;;;;4.73;3.83;;;;;;;1.99;94.63;102687.75;5084931;28;20229;-81
2023/02/05 11:12:02;;;;;;;5.80;4.40;;;;;;;2.00;94.99;102686.91;5086127;28;20250;-81
2023/02/05 11:14:32;;;;;;;7.27;4.50;;;;;;;2.01;94.90;102693.91;5089902;28;20211;-81
2023/02/05 11:17:03;;;;;;;5.50;4.20;;;;;;;2.02;95.17;102700.94;5096126;28;20204;-81
2023/02/05 11:19:32;;;;;;;6.30;4.20;;;;;;;2.02;94.70;102693.03;5089495;28;20228;-82
2023/02/05 11:22:01;;;;;;;5.87;4.43;;;;;;;2.02;95.39;102693.03;5088350;28;20212;-81
2023/02/05 11:24:30;;;;;;;6.40;5.03;;;;;;;2.04;95.03;102687.78;5090879;28;20656;-82
2023/02/05 11:27:25;;;;;;;9.57;5.47;;;;;;;2.07;96.06;102691.31;5087883;28;20197;-82
2023/02/05 11:29:53;;;;;;;10.67;7.43;;;;;;;2.11;96.06;102697.47;5089450;28;20309;-81
2023/02/05 11:32:20;;;;;;;11.10;6.93;;;;;;;2.13;95.56;102701.00;5089890;28;20204;-81
2023/02/05 11:34:48;;;;;;;7.90;6.30;;;;;;;2.15;96.29;102701.00;5081079;28;20212;-81
2023/02/05 11:37:17;;;;;;;7.37;5.57;;;;;;;2.15;95.72;102693.97;5087366;28;20212;-81
2023/02/05 11:39:45;;;;;;;10.20;7.93;;;;;;;2.17;96.48;102705.38;5082698;28;20228;-82
2023/02/05 11:42:19;;;;;;;10.73;8.23;;;;;;;2.19;96.19;102700.13;5085861;28;20224;-81
2023/02/05 11:44:49;;;;;;;10.40;7.93;;;;;;;2.21;97.02;102715.03;5086531;28;20664;-81
2023/02/05 11:47:28;;;;;;;9.87;8.77;;;;;;;2.24;96.99;102712.41;5084411;28;20197;-81